Time;durP1;ratioP1;P1;durP2;ratioP2;P2;SDS_P1;SDS_P2;PMS_P1;PMS_P2;Temp;Humidity;BMP_temperature;BMP_pressure;BME280_temperature;BME280_humidity;BME280_pressure;Samples;Min_cycle;Max_cycle;Signal;HPM_P1;HPM_P2
2022/05/30 00:01:24;;;;;;;2.05;0.85;;;;;;;;;;5103123;28;20290;-19
2022/05/30 00:03:54;;;;;;;3.67;1.10;;;;;;;;;;5099001;28;20235;-18
2022/05/30 00:06:22;;;;;;;3.75;0.85;;;;;;;;;;5100094;28;20244;-19
2022/05/30 00:08:49;;;;;;;6.40;1.30;;;;;;;;;;5101198;28;20655;-18
2022/05/30 00:11:17;;;;;;;2.25;0.98;;;;;;;;;;5098658;28;21044;-19
2022/05/30 00:13:44;;;;;;;2.22;0.95;;;;;;;;;;5097192;28;20236;-19
2022/05/30 00:16:12;;;;;;;3.20;0.90;;;;;;;;;;5094234;28;20225;-19
2022/05/30 00:18:40;;;;;;;4.55;0.95;;;;;;;;;;5095497;28;20659;-19
2022/05/30 00:21:08;;;;;;;3.92;1.40;;;;;;;;;;5101128;28;21064;-19
2022/05/30 00:23:36;;;;;;;3.25;0.93;;;;;;;;;;5099721;28;20247;-18
2022/05/30 00:26:05;;;;;;;5.38;1.20;;;;;;;;;;5101869;28;20262;-18
2022/05/30 00:28:32;;;;;;;3.55;1.33;;;;;;;;;;5097482;28;20244;-19
2022/05/30 00:30:59;;;;;;;3.80;1.20;;;;;;;;;;5100541;28;20687;-19
2022/05/30 00:33:27;;;;;;;2.47;1.05;;;;;;;;;;5100573;28;20235;-19
2022/05/30 00:35:54;;;;;;;2.80;0.95;;;;;;;;;;5094171;28;20224;-19
2022/05/30 00:38:23;;;;;;;3.00;1.10;;;;;;;;;;5101085;28;20231;-19
2022/05/30 00:40:50;;;;;;;3.70;1.08;;;;;;;;;;5098888;28;20232;-19
2022/05/30 00:43:18;;;;;;;3.90;1.10;;;;;;;;;;5101719;28;20228;-19
2022/05/30 00:45:46;;;;;;;3.35;1.02;;;;;;;;;;5096848;28;20237;-18
2022/05/30 00:48:13;;;;;;;2.40;0.90;;;;;;;;;;5100407;28;20683;-18
2022/05/30 00:50:41;;;;;;;3.72;1.23;;;;;;;;;;5091709;28;20225;-19
2022/05/30 00:53:08;;;;;;;3.88;1.00;;;;;;;;;;5101169;28;20239;-18
2022/05/30 00:55:37;;;;;;;2.92;0.90;;;;;;;;;;5098155;28;20734;-19
2022/05/30 00:58:06;;;;;;;2.13;0.80;;;;;;;;;;5100174;28;20232;-19
2022/05/30 01:00:33;;;;;;;6.47;1.25;;;;;;;;;;5102772;28;20940;-19
2022/05/30 01:08:31;;;;;;;3.58;1.08;;;;;;;;;;5098814;28;20235;-19
2022/05/30 01:10:59;;;;;;;2.50;1.00;;;;;;;;;;5097852;28;20224;-19
2022/05/30 01:13:27;;;;;;;4.13;0.93;;;;;;;;;;5105024;28;20570;-18
2022/05/30 01:15:55;;;;;;;3.50;1.15;;;;;;;;;;5099411;28;20235;-18
2022/05/30 01:18:23;;;;;;;4.47;1.10;;;;;;;;;;5104694;28;20692;-19
2022/05/30 01:21:01;;;;;;;5.22;1.20;;;;;;;;;;5103714;28;20239;-19
2022/05/30 01:23:41;;;;;;;2.67;1.23;;;;;;;;;;5100733;28;20255;-18
2022/05/30 01:26:24;;;;;;;4.38;1.13;;;;;;;;;;5104533;28;20239;-19
2022/05/30 01:28:55;;;;;;;2.80;1.02;;;;;;;;;;5097347;28;20242;-18
2022/05/30 01:31:22;;;;;;;3.13;1.05;;;;;;;;;;5098187;28;20232;-19
2022/05/30 01:33:49;;;;;;;3.30;1.20;;;;;;;;;;5099586;28;20233;-19
2022/05/30 01:36:17;;;;;;;3.33;0.95;;;;;;;;;;5100715;28;20225;-19
2022/05/30 01:38:44;;;;;;;3.60;1.15;;;;;;;;;;5101607;28;20248;-19
2022/05/30 01:41:12;;;;;;;1.70;0.75;;;;;;;;;;5093668;28;20228;-19
2022/05/30 01:43:39;;;;;;;4.90;1.08;;;;;;;;;;5096029;28;20582;-18
2022/05/30 01:46:08;;;;;;;3.08;1.05;;;;;;;;;;5101752;28;20228;-18
2022/05/30 01:48:36;;;;;;;5.40;1.20;;;;;;;;;;5094276;28;20260;-19
2022/05/30 01:51:03;;;;;;;3.30;1.27;;;;;;;;;;5102379;28;20224;-19
2022/05/30 01:53:30;;;;;;;4.07;1.10;;;;;;;;;;5102366;28;20263;-19
2022/05/30 01:55:58;;;;;;;1.92;0.80;;;;;;;;;;5103186;28;20634;-19
2022/05/30 01:58:25;;;;;;;3.58;1.10;;;;;;;;;;5101802;28;20229;-19
2022/05/30 02:00:52;;;;;;;3.38;1.00;;;;;;;;;;5105174;28;21048;-19
2022/05/30 02:03:21;;;;;;;4.03;1.13;;;;;;;;;;5098968;28;20240;-19
2022/05/30 02:05:48;;;;;;;2.45;0.90;;;;;;;;;;5095818;28;20232;-19
2022/05/30 02:08:20;;;;;;;3.30;1.17;;;;;;;;;;5101199;28;20643;-19
2022/05/30 02:10:48;;;;;;;4.18;1.00;;;;;;;;;;5103221;28;20239;-19
2022/05/30 02:13:15;;;;;;;2.47;0.85;;;;;;;;;;5101482;28;20232;-19
2022/05/30 02:18:29;;;;;;;3.53;1.10;;;;;;;;;;5101341;28;20282;-19
2022/05/30 02:20:56;;;;;;;2.80;1.20;;;;;;;;;;5101438;28;20700;-19
2022/05/30 02:23:24;;;;;;;3.75;1.50;;;;;;;;;;5097641;28;20240;-19
2022/05/30 02:25:51;;;;;;;2.60;1.10;;;;;;;;;;5103156;28;20234;-19
2022/05/30 02:28:18;;;;;;;3.45;1.00;;;;;;;;;;5100182;28;20225;-19
2022/05/30 02:30:46;;;;;;;2.38;0.88;;;;;;;;;;5100457;28;20794;-19
2022/05/30 02:38:47;;;;;;;2.85;1.10;;;;;;;;;;5099233;28;20354;-18
2022/05/30 02:41:14;;;;;;;2.95;1.08;;;;;;;;;;5100309;28;20243;-19
2022/05/30 02:43:42;;;;;;;2.22;1.00;;;;;;;;;;5097789;28;20239;-19
2022/05/30 02:46:09;;;;;;;2.30;0.88;;;;;;;;;;5098052;28;20225;-19
2022/05/30 02:48:37;;;;;;;2.53;1.10;;;;;;;;;;5099437;28;20590;-19
2022/05/30 02:51:06;;;;;;;3.40;1.15;;;;;;;;;;5100951;28;20224;-19
2022/05/30 02:53:33;;;;;;;3.90;1.25;;;;;;;;;;5099412;28;20233;-18
2022/05/30 02:56:01;;;;;;;2.92;1.08;;;;;;;;;;5102041;28;20833;-18
2022/05/30 02:58:28;;;;;;;2.05;0.93;;;;;;;;;;5098809;28;20220;-19
2022/05/30 03:00:55;;;;;;;2.35;0.90;;;;;;;;;;5099509;28;20233;-19
2022/05/30 03:03:22;;;;;;;3.42;1.00;;;;;;;;;;5103202;28;20232;-19
2022/05/30 03:05:50;;;;;;;2.60;1.15;;;;;;;;;;5098009;28;20224;-19
2022/05/30 03:08:20;;;;;;;2.70;1.00;;;;;;;;;;5101876;28;20228;-18
2022/05/30 03:10:47;;;;;;;1.77;0.82;;;;;;;;;;5101813;28;20252;-19
2022/05/30 03:13:15;;;;;;;2.25;0.93;;;;;;;;;;5099080;28;20239;-19
2022/05/30 03:15:42;;;;;;;6.65;1.40;;;;;;;;;;5098953;28;20713;-19
2022/05/30 03:18:09;;;;;;;2.30;1.00;;;;;;;;;;5099207;28;20228;-19
2022/05/30 03:20:37;;;;;;;2.20;0.80;;;;;;;;;;5098998;28;20229;-18
2022/05/30 03:23:04;;;;;;;1.45;0.70;;;;;;;;;;5100798;28;20236;-18
2022/05/30 03:25:33;;;;;;;4.07;1.40;;;;;;;;;;5096587;28;20228;-19
2022/05/30 03:28:00;;;;;;;3.25;1.10;;;;;;;;;;5101777;28;20231;-18
2022/05/30 03:30:28;;;;;;;3.40;1.05;;;;;;;;;;5100204;28;20260;-19
2022/05/30 03:32:55;;;;;;;3.17;1.10;;;;;;;;;;5098476;28;20240;-19
2022/05/30 03:35:22;;;;;;;5.10;1.10;;;;;;;;;;5093428;28;20232;-19
2022/05/30 03:37:50;;;;;;;2.70;0.90;;;;;;;;;;5099472;28;20225;-19
2022/05/30 03:40:18;;;;;;;2.97;1.00;;;;;;;;;;5100091;28;20235;-19
2022/05/30 03:42:46;;;;;;;2.58;1.20;;;;;;;;;;5098182;28;20232;-19
2022/05/30 03:45:14;;;;;;;3.08;1.05;;;;;;;;;;5100305;28;20230;-18
2022/05/30 03:47:41;;;;;;;2.75;1.10;;;;;;;;;;5095004;28;20256;-19
2022/05/30 03:50:09;;;;;;;3.88;1.25;;;;;;;;;;5096410;28;20243;-18
2022/05/30 03:52:37;;;;;;;3.78;1.27;;;;;;;;;;5098332;28;20710;-19
2022/05/30 03:55:04;;;;;;;3.00;0.82;;;;;;;;;;5101347;28;20224;-18
2022/05/30 03:57:32;;;;;;;2.97;1.10;;;;;;;;;;5092791;28;20232;-19
2022/05/30 04:00:00;;;;;;;4.13;1.17;;;;;;;;;;5099726;28;20232;-19
2022/05/30 04:02:28;;;;;;;2.28;0.85;;;;;;;;;;5098021;27;20229;-19
2022/05/30 04:04:55;;;;;;;2.67;1.00;;;;;;;;;;5101620;28;20235;-18
2022/05/30 04:07:22;;;;;;;1.30;0.82;;;;;;;;;;5097793;28;21306;-19
2022/05/30 04:09:50;;;;;;;2.17;1.05;;;;;;;;;;5101447;28;20232;-19
2022/05/30 04:12:19;;;;;;;3.10;1.00;;;;;;;;;;5100361;28;20975;-19
2022/05/30 04:14:52;;;;;;;1.90;0.95;;;;;;;;;;5101636;28;20700;-18
2022/05/30 04:17:20;;;;;;;1.80;0.80;;;;;;;;;;5101094;28;20224;-18
2022/05/30 04:19:48;;;;;;;2.60;1.10;;;;;;;;;;5098166;28;20236;-19
2022/05/30 04:22:15;;;;;;;2.95;0.82;;;;;;;;;;5101749;28;20239;-19
2022/05/30 04:24:43;;;;;;;3.45;1.15;;;;;;;;;;5100646;28;20220;-19
2022/05/30 04:27:10;;;;;;;3.58;1.05;;;;;;;;;;5094602;28;20263;-19
2022/05/30 04:29:37;;;;;;;3.13;1.08;;;;;;;;;;5103453;28;20231;-19
2022/05/30 04:32:05;;;;;;;3.38;1.05;;;;;;;;;;5094959;28;20232;-19
2022/05/30 04:34:36;;;;;;;1.90;0.90;;;;;;;;;;5097121;28;20232;-19
2022/05/30 04:37:04;;;;;;;3.30;0.93;;;;;;;;;;5105798;27;20231;-19
2022/05/30 04:39:31;;;;;;;3.45;0.93;;;;;;;;;;5099950;28;20343;-19
2022/05/30 04:41:58;;;;;;;1.70;0.95;;;;;;;;;;5105081;28;20597;-18
2022/05/30 04:44:26;;;;;;;2.78;1.10;;;;;;;;;;5103392;28;20224;-19
2022/05/30 04:46:53;;;;;;;3.28;1.08;;;;;;;;;;5102110;28;20236;-19
2022/05/30 04:49:20;;;;;;;2.83;1.10;;;;;;;;;;5102611;28;20290;-19
2022/05/30 04:51:49;;;;;;;4.03;1.40;;;;;;;;;;5103706;28;20232;-19
2022/05/30 04:54:17;;;;;;;3.75;1.10;;;;;;;;;;5102856;27;21304;-19
2022/05/30 04:56:44;;;;;;;2.15;1.05;;;;;;;;;;5105227;28;20228;-19
2022/05/30 04:59:11;;;;;;;3.03;1.10;;;;;;;;;;5101147;28;20228;-19
2022/05/30 05:01:38;;;;;;;2.03;0.80;;;;;;;;;;5102959;28;20231;-19
2022/05/30 05:04:06;;;;;;;2.58;0.95;;;;;;;;;;5104485;28;20228;-18
2022/05/30 05:06:34;;;;;;;2.70;0.95;;;;;;;;;;5099241;28;20236;-18
2022/05/30 05:09:06;;;;;;;2.10;1.13;;;;;;;;;;5103380;28;20240;-18
2022/05/30 05:11:33;;;;;;;2.92;1.08;;;;;;;;;;5103238;28;20243;-19
2022/05/30 05:14:01;;;;;;;2.65;1.08;;;;;;;;;;5099654;28;20232;-18
2022/05/30 05:16:29;;;;;;;2.67;0.90;;;;;;;;;;5102411;28;20232;-18
2022/05/30 05:18:57;;;;;;;2.22;1.20;;;;;;;;;;5103367;28;20683;-19
2022/05/30 05:21:26;;;;;;;2.30;0.90;;;;;;;;;;5104789;28;20258;-19
2022/05/30 05:23:56;;;;;;;2.70;1.08;;;;;;;;;;5102200;28;20249;-18
2022/05/30 05:26:25;;;;;;;2.35;0.93;;;;;;;;;;5103643;28;21050;-18
2022/05/30 05:28:52;;;;;;;1.98;0.90;;;;;;;;;;5103558;28;20354;-19
2022/05/30 05:31:21;;;;;;;3.05;0.98;;;;;;;;;;5101076;28;20270;-19
2022/05/30 05:33:50;;;;;;;1.95;0.85;;;;;;;;;;5103417;28;20237;-19
2022/05/30 05:36:18;;;;;;;1.92;0.90;;;;;;;;;;5102485;28;20979;-19
2022/05/30 05:38:46;;;;;;;1.80;0.80;;;;;;;;;;5103853;28;21000;-18
2022/05/30 05:41:13;;;;;;;2.33;1.08;;;;;;;;;;5103208;28;20239;-18
2022/05/30 05:43:42;;;;;;;1.10;0.60;;;;;;;;;;5096908;28;20981;-19
2022/05/30 05:46:12;;;;;;;2.40;0.80;;;;;;;;;;5099793;27;20233;-19
2022/05/30 05:48:40;;;;;;;1.48;0.90;;;;;;;;;;5097321;28;20302;-19
2022/05/30 05:51:07;;;;;;;3.30;0.90;;;;;;;;;;5103612;28;20742;-18
2022/05/30 05:53:34;;;;;;;2.65;1.10;;;;;;;;;;5102099;28;20237;-18
2022/05/30 05:56:09;;;;;;;2.08;0.90;;;;;;;;;;5103441;28;20718;-18
2022/05/30 05:58:36;;;;;;;2.30;0.93;;;;;;;;;;5101804;28;20848;-18
2022/05/30 06:01:07;;;;;;;1.58;0.70;;;;;;;;;;5098403;28;20230;-19
2022/05/30 06:03:35;;;;;;;2.53;0.73;;;;;;;;;;5101452;28;21031;-19
2022/05/30 06:06:03;;;;;;;1.55;0.90;;;;;;;;;;5102754;28;20232;-19
2022/05/30 06:08:30;;;;;;;2.65;0.75;;;;;;;;;;5102565;28;20233;-19
2022/05/30 06:11:08;;;;;;;1.95;0.90;;;;;;;;;;5099617;28;20778;-18
2022/05/30 06:13:35;;;;;;;1.45;0.60;;;;;;;;;;5103387;28;21165;-19
2022/05/30 06:16:04;;;;;;;3.40;0.95;;;;;;;;;;5099313;28;20259;-19
2022/05/30 06:18:33;;;;;;;2.95;0.95;;;;;;;;;;5097473;28;20236;-19
2022/05/30 06:21:00;;;;;;;2.70;0.70;;;;;;;;;;5101761;28;20369;-19
2022/05/30 06:23:28;;;;;;;3.15;0.80;;;;;;;;;;5102896;28;20228;-18
2022/05/30 06:25:56;;;;;;;2.58;1.10;;;;;;;;;;5101532;28;20221;-19
2022/05/30 06:28:23;;;;;;;2.97;1.05;;;;;;;;;;5100187;28;20224;-19
2022/05/30 06:30:50;;;;;;;3.28;0.88;;;;;;;;;;5100351;28;20229;-19
2022/05/30 06:33:18;;;;;;;1.27;0.80;;;;;;;;;;5099786;28;20251;-19
2022/05/30 06:35:46;;;;;;;1.42;0.70;;;;;;;;;;5099957;28;20236;-19
2022/05/30 06:38:14;;;;;;;2.15;0.68;;;;;;;;;;5100825;28;20225;-18
2022/05/30 06:40:46;;;;;;;2.83;0.88;;;;;;;;;;5097237;28;20703;-18
2022/05/30 06:43:13;;;;;;;1.45;0.68;;;;;;;;;;5102343;28;20347;-20
2022/05/30 06:45:42;;;;;;;1.13;0.63;;;;;;;;;;5095486;28;20232;-20
2022/05/30 06:48:09;;;;;;;1.80;0.80;;;;;;;;;;5096525;28;20235;-20
2022/05/30 06:50:36;;;;;;;3.63;1.13;;;;;;;;;;5098904;28;20740;-20
2022/05/30 06:53:06;;;;;;;1.70;0.80;;;;;;;;;;5096647;28;20255;-20
2022/05/30 06:55:33;;;;;;;3.65;0.93;;;;;;;;;;5103715;28;21034;-19
2022/05/30 06:58:13;;;;;;;5.50;1.02;;;;;;;;;;5101832;28;20225;-20
2022/05/30 07:00:40;;;;;;;2.22;0.73;;;;;;;;;;5092599;27;20730;-19
2022/05/30 07:03:08;;;;;;;2.45;0.60;;;;;;;;;;5100766;28;20232;-19
2022/05/30 07:05:35;;;;;;;1.98;0.55;;;;;;;;;;5101386;28;20228;-20
2022/05/30 07:08:03;;;;;;;3.13;0.60;;;;;;;;;;5104209;28;20224;-20
2022/05/30 07:10:31;;;;;;;2.55;0.73;;;;;;;;;;5100931;28;20259;-19
2022/05/30 07:12:59;;;;;;;1.73;0.75;;;;;;;;;;5103027;28;20236;-19
2022/05/30 07:15:26;;;;;;;2.55;0.63;;;;;;;;;;5100969;28;20225;-19
2022/05/30 07:17:54;;;;;;;1.98;0.68;;;;;;;;;;5101596;28;20235;-20
2022/05/30 07:20:21;;;;;;;1.75;0.70;;;;;;;;;;5100072;28;20638;-20
2022/05/30 07:22:48;;;;;;;1.27;0.50;;;;;;;;;;5101665;27;20236;-19
2022/05/30 07:25:16;;;;;;;2.05;0.77;;;;;;;;;;5102799;28;20232;-19
2022/05/30 07:27:44;;;;;;;1.50;0.73;;;;;;;;;;5100853;28;20232;-19
2022/05/30 07:30:12;;;;;;;3.03;0.80;;;;;;;;;;5095505;28;20260;-19
2022/05/30 07:32:40;;;;;;;1.05;0.60;;;;;;;;;;5098605;28;20252;-19
2022/05/30 07:35:07;;;;;;;2.45;0.68;;;;;;;;;;5102362;28;20263;-20
2022/05/30 07:37:34;;;;;;;2.38;0.65;;;;;;;;;;5100442;28;20229;-19
2022/05/30 07:40:02;;;;;;;2.10;0.45;;;;;;;;;;5103216;28;20235;-19
2022/05/30 07:42:29;;;;;;;1.50;0.60;;;;;;;;;;5100902;28;20280;-19
2022/05/30 07:44:58;;;;;;;2.30;0.60;;;;;;;;;;5100325;28;20229;-20
2022/05/30 07:47:27;;;;;;;1.20;0.57;;;;;;;;;;5099392;28;20995;-20
2022/05/30 07:49:54;;;;;;;1.63;0.43;;;;;;;;;;5105810;28;20232;-19
2022/05/30 07:52:21;;;;;;;1.58;0.60;;;;;;;;;;5101436;28;20236;-19
2022/05/30 07:54:48;;;;;;;2.13;0.60;;;;;;;;;;5096588;28;20225;-19
2022/05/30 07:57:16;;;;;;;0.77;0.30;;;;;;;;;;5103562;28;20220;-19
2022/05/30 07:59:43;;;;;;;2.97;0.80;;;;;;;;;;5101478;28;20235;-19
2022/05/30 08:02:12;;;;;;;1.48;0.68;;;;;;;;;;5096711;28;20228;-19
2022/05/30 08:04:39;;;;;;;2.67;0.70;;;;;;;;;;5103969;28;20691;-19
2022/05/30 08:07:07;;;;;;;1.45;0.60;;;;;;;;;;5097411;28;20244;-19
2022/05/30 08:09:34;;;;;;;1.40;0.60;;;;;;;;;;5101184;28;20229;-19
2022/05/30 08:12:01;;;;;;;1.98;0.77;;;;;;;;;;5099255;28;20220;-19
2022/05/30 08:14:29;;;;;;;1.92;0.50;;;;;;;;;;5101832;28;20267;-19
2022/05/30 08:16:56;;;;;;;1.40;0.68;;;;;;;;;;5100214;28;20235;-20
2022/05/30 08:19:25;;;;;;;2.25;0.57;;;;;;;;;;5099902;27;20233;-19
2022/05/30 08:22:12;;;;;;;2.55;0.50;;;;;;;;;;5097955;28;20718;-19
2022/05/30 08:24:40;;;;;;;1.65;0.57;;;;;;;;;;5101531;28;20235;-19
2022/05/30 08:27:08;;;;;;;1.13;0.40;;;;;;;;;;5098790;28;20240;-19
2022/05/30 08:29:35;;;;;;;0.75;0.50;;;;;;;;;;5099101;28;20228;-19
2022/05/30 08:32:02;;;;;;;2.05;0.85;;;;;;;;;;5095189;28;20228;-19
2022/05/30 08:34:32;;;;;;;0.47;0.30;;;;;;;;;;5099295;28;20744;-19
2022/05/30 08:37:00;;;;;;;1.55;0.50;;;;;;;;;;5099194;28;20235;-19
2022/05/30 08:42:12;;;;;;;1.17;0.60;;;;;;;;;;5094356;28;20255;-19
2022/05/30 08:44:40;;;;;;;1.77;0.70;;;;;;;;;;5098440;28;20255;-19
2022/05/30 08:47:08;;;;;;;1.70;0.55;;;;;;;;;;5100108;28;20236;-19
2022/05/30 08:49:38;;;;;;;1.77;0.50;;;;;;;;;;5100443;28;20228;-19
2022/05/30 08:52:15;;;;;;;1.30;0.40;;;;;;;;;;5095118;28;20224;-19
2022/05/30 08:54:51;;;;;;;1.10;0.57;;;;;;;;;;5095726;28;20655;-19
2022/05/30 08:57:22;;;;;;;1.00;0.45;;;;;;;;;;5095405;28;20223;-19
2022/05/30 08:59:54;;;;;;;0.93;0.40;;;;;;;;;;5100678;28;20232;-19
2022/05/30 09:02:22;;;;;;;0.70;0.40;;;;;;;;;;5096721;28;20235;-19
2022/05/30 09:04:52;;;;;;;0.45;0.30;;;;;;;;;;5100859;28;20992;-19
2022/05/30 09:07:20;;;;;;;0.52;0.30;;;;;;;;;;5099482;28;20236;-19
2022/05/30 09:09:50;;;;;;;2.15;0.47;;;;;;;;;;5097957;28;20228;-19
2022/05/30 09:12:18;;;;;;;1.50;0.40;;;;;;;;;;5099341;28;20221;-19
2022/05/30 09:14:47;;;;;;;2.40;0.50;;;;;;;;;;5101205;28;20240;-19
2022/05/30 09:17:20;;;;;;;0.68;0.38;;;;;;;;;;5100120;28;20610;-19
2022/05/30 09:19:48;;;;;;;0.75;0.50;;;;;;;;;;5097217;28;20228;-19
2022/05/30 09:22:16;;;;;;;0.95;0.40;;;;;;;;;;5099169;28;20243;-19
2022/05/30 09:25:55;;;;;;;1.40;0.50;;;;;;;;;;5102499;28;20224;-19
2022/05/30 09:27:32;;;;;;;1.90;0.60;;;;;;;;;;5101853;28;20232;-19
2022/05/30 09:30:00;;;;;;;0.73;0.30;;;;;;;;;;5104885;28;20713;-19
2022/05/30 09:32:29;;;;;;;0.50;0.40;;;;;;;;;;5095994;28;20990;-19
2022/05/30 09:34:57;;;;;;;1.92;0.60;;;;;;;;;;5102206;28;20244;-19
2022/05/30 09:37:26;;;;;;;1.40;0.45;;;;;;;;;;5102474;28;20235;-20
2022/05/30 09:39:53;;;;;;;1.70;0.50;;;;;;;;;;5100998;28;20951;-19
2022/05/30 09:42:24;;;;;;;1.13;0.47;;;;;;;;;;5102681;28;20235;-19
2022/05/30 09:44:52;;;;;;;4.40;0.60;;;;;;;;;;5097849;28;20706;-20
2022/05/30 09:47:22;;;;;;;1.15;0.38;;;;;;;;;;5100198;28;20236;-19
2022/05/30 09:49:49;;;;;;;1.70;0.70;;;;;;;;;;5100638;28;20599;-19
2022/05/30 09:52:37;;;;;;;1.83;0.40;;;;;;;;;;5101271;28;20224;-20
2022/05/30 09:55:20;;;;;;;1.10;0.40;;;;;;;;;;5101307;28;20345;-19
2022/05/30 09:57:47;;;;;;;1.00;0.40;;;;;;;;;;5095005;28;20225;-19
2022/05/30 10:00:17;;;;;;;0.68;0.28;;;;;;;;;;5102777;28;20692;-19
2022/05/30 10:02:45;;;;;;;0.70;0.40;;;;;;;;;;5098660;28;20613;-19
2022/05/30 10:05:23;;;;;;;1.10;0.38;;;;;;;;;;5098862;28;20252;-19
2022/05/30 10:07:52;;;;;;;1.75;0.52;;;;;;;;;;5100493;28;20713;-19
2022/05/30 10:10:20;;;;;;;1.15;0.40;;;;;;;;;;5101394;28;20228;-19
2022/05/30 10:12:53;;;;;;;1.65;0.35;;;;;;;;;;5105286;28;20231;-19
2022/05/30 10:15:22;;;;;;;1.17;0.47;;;;;;;;;;5099699;28;20235;-19
2022/05/30 10:17:50;;;;;;;1.23;0.40;;;;;;;;;;5097178;28;20275;-20
2022/05/30 10:20:22;;;;;;;2.75;0.50;;;;;;;;;;5095169;28;20842;-19
2022/05/30 10:28:32;;;;;;;0.90;0.40;;;;;;;;;;5100602;28;20228;-19
2022/05/30 10:31:03;;;;;;;0.98;0.40;;;;;;;;;;5095905;28;20231;-19
2022/05/30 10:33:34;;;;;;;2.55;0.52;;;;;;;;;;5102572;28;20231;-19
2022/05/30 10:36:04;;;;;;;1.67;0.45;;;;;;;;;;5099972;28;20267;-20
2022/05/30 10:38:34;;;;;;;0.75;0.52;;;;;;;;;;5102578;28;20232;-19
2022/05/30 10:41:04;;;;;;;1.55;0.40;;;;;;;;;;5104239;28;20219;-19
2022/05/30 10:43:35;;;;;;;0.60;0.38;;;;;;;;;;5101042;28;20243;-19
2022/05/30 10:46:03;;;;;;;1.02;0.40;;;;;;;;;;5100040;28;20277;-20
2022/05/30 10:48:39;;;;;;;1.50;0.40;;;;;;;;;;5103533;28;20696;-20
2022/05/30 10:51:07;;;;;;;1.65;0.50;;;;;;;;;;5101622;28;20223;-19
2022/05/30 10:53:38;;;;;;;1.75;0.52;;;;;;;;;;5099189;28;20229;-19
2022/05/30 10:56:10;;;;;;;2.45;0.40;;;;;;;;;;5103114;28;20239;-19
2022/05/30 10:58:39;;;;;;;1.55;0.43;;;;;;;;;;5103066;28;20234;-19
2022/05/30 11:01:07;;;;;;;2.15;0.47;;;;;;;;;;5098491;28;20228;-19
2022/05/30 11:03:36;;;;;;;2.17;0.65;;;;;;;;;;5098268;28;20381;-18
2022/05/30 11:06:06;;;;;;;1.35;0.40;;;;;;;;;;5098773;28;20229;-19
2022/05/30 11:08:34;;;;;;;0.60;0.43;;;;;;;;;;5101777;28;20237;-19
2022/05/30 11:11:02;;;;;;;1.30;0.50;;;;;;;;;;5101094;28;20617;-20
2022/05/30 11:13:38;;;;;;;2.85;0.70;;;;;;;;;;5101866;28;20312;-20
2022/05/30 11:16:05;;;;;;;2.80;0.70;;;;;;;;;;5098802;28;20248;-19
2022/05/30 11:18:34;;;;;;;1.67;0.52;;;;;;;;;;5100332;28;20393;-19
2022/05/30 11:21:03;;;;;;;1.40;0.40;;;;;;;;;;5100842;28;20225;-20
2022/05/30 11:23:31;;;;;;;4.07;0.60;;;;;;;;;;5099218;28;20248;-20
2022/05/30 11:26:11;;;;;;;1.00;0.47;;;;;;;;;;5098790;28;20672;-19
2022/05/30 11:28:43;;;;;;;0.95;0.50;;;;;;;;;;5098351;28;20234;-20
2022/05/30 11:31:12;;;;;;;1.63;0.40;;;;;;;;;;5089851;28;20236;-19
2022/05/30 11:33:47;;;;;;;2.90;0.43;;;;;;;;;;5104156;28;20228;-20
2022/05/30 11:36:24;;;;;;;1.60;0.50;;;;;;;;;;5091248;28;20244;-18
2022/05/30 11:38:56;;;;;;;3.17;0.60;;;;;;;;;;5097525;28;20235;-19
2022/05/30 11:41:27;;;;;;;1.00;0.50;;;;;;;;;;5100120;28;20224;-19
2022/05/30 11:44:03;;;;;;;1.20;0.40;;;;;;;;;;5099452;28;20238;-19
2022/05/30 11:46:32;;;;;;;2.25;0.40;;;;;;;;;;5099663;28;20239;-19
2022/05/30 11:49:01;;;;;;;1.15;0.50;;;;;;;;;;5101723;27;21039;-19
2022/05/30 11:51:32;;;;;;;0.95;0.40;;;;;;;;;;5101707;28;20691;-19
2022/05/30 11:54:10;;;;;;;0.60;0.38;;;;;;;;;;5100927;28;20244;-19
2022/05/30 11:56:39;;;;;;;1.25;0.45;;;;;;;;;;5102483;28;20231;-19
2022/05/30 11:59:13;;;;;;;1.45;0.30;;;;;;;;;;5098785;28;20229;-19
2022/05/30 12:01:41;;;;;;;1.20;0.30;;;;;;;;;;5089365;28;20223;-18
2022/05/30 12:04:28;;;;;;;1.05;0.40;;;;;;;;;;5103238;28;20232;-19
2022/05/30 12:06:59;;;;;;;1.70;0.60;;;;;;;;;;5099108;28;20321;-19
2022/05/30 12:09:40;;;;;;;1.38;0.43;;;;;;;;;;5092565;28;20232;-19
2022/05/30 12:12:25;;;;;;;2.08;0.70;;;;;;;;;;5101842;28;20232;-19
2022/05/30 12:15:13;;;;;;;1.25;0.55;;;;;;;;;;5100824;27;20243;-19
2022/05/30 12:23:52;;;;;;;1.48;0.47;;;;;;;;;;5099687;27;20607;-19
2022/05/30 12:26:34;;;;;;;1.23;0.30;;;;;;;;;;5097439;28;20723;-19
2022/05/30 12:29:02;;;;;;;1.73;0.40;;;;;;;;;;5099538;28;20224;-19
2022/05/30 12:31:40;;;;;;;0.90;0.40;;;;;;;;;;5097105;28;20232;-19
2022/05/30 12:34:08;;;;;;;0.82;0.38;;;;;;;;;;5097350;28;20231;-19
2022/05/30 12:36:39;;;;;;;0.85;0.50;;;;;;;;;;5099453;28;20239;-20
2022/05/30 12:39:24;;;;;;;1.83;0.50;;;;;;;;;;5100686;28;20239;-20
2022/05/30 12:41:56;;;;;;;1.35;0.40;;;;;;;;;;5098172;28;20228;-20
2022/05/30 12:44:23;;;;;;;1.58;0.45;;;;;;;;;;5099627;28;20229;-19
2022/05/30 12:46:53;;;;;;;1.40;0.45;;;;;;;;;;5101633;28;20236;-20
2022/05/30 12:49:29;;;;;;;1.70;0.50;;;;;;;;;;5098642;28;20323;-20
2022/05/30 12:52:04;;;;;;;1.13;0.43;;;;;;;;;;5098735;28;20237;-20
2022/05/30 12:54:35;;;;;;;1.98;0.40;;;;;;;;;;5101828;28;20254;-20
2022/05/30 12:57:04;;;;;;;3.65;0.50;;;;;;;;;;5102077;28;20695;-20
2022/05/30 12:59:33;;;;;;;2.38;0.38;;;;;;;;;;5107166;28;20228;-20
2022/05/30 13:02:02;;;;;;;0.68;0.38;;;;;;;;;;5099996;28;20327;-20
2022/05/30 13:04:31;;;;;;;0.63;0.40;;;;;;;;;;5105689;28;20686;-19
2022/05/30 13:07:10;;;;;;;1.08;0.30;;;;;;;;;;5104205;28;20221;-19
2022/05/30 13:09:40;;;;;;;1.15;0.40;;;;;;;;;;5104345;28;20236;-20
2022/05/30 13:12:17;;;;;;;0.68;0.40;;;;;;;;;;5102411;28;20227;-20
2022/05/30 13:14:59;;;;;;;1.40;0.50;;;;;;;;;;5093377;28;20236;-20
2022/05/30 13:17:30;;;;;;;3.05;0.43;;;;;;;;;;5103473;28;20227;-20
2022/05/30 13:20:00;;;;;;;2.20;0.50;;;;;;;;;;5099524;28;20220;-20
2022/05/30 13:22:28;;;;;;;2.17;0.60;;;;;;;;;;5104594;28;20247;-20
2022/05/30 13:24:56;;;;;;;2.03;0.47;;;;;;;;;;5103660;28;20255;-20
2022/05/30 13:27:23;;;;;;;1.95;0.40;;;;;;;;;;5102969;28;20236;-19
2022/05/30 13:29:50;;;;;;;1.38;0.57;;;;;;;;;;5102933;28;21013;-18
2022/05/30 13:32:19;;;;;;;1.10;0.40;;;;;;;;;;5098320;28;20231;-18
2022/05/30 13:34:49;;;;;;;1.30;0.43;;;;;;;;;;5100652;28;20299;-21
2022/05/30 13:37:19;;;;;;;2.30;0.65;;;;;;;;;;5106508;28;20344;-20
2022/05/30 13:39:47;;;;;;;1.38;0.45;;;;;;;;;;5100997;28;20725;-20
2022/05/30 13:42:14;;;;;;;1.42;0.40;;;;;;;;;;5103327;28;20233;-20
2022/05/30 13:44:42;;;;;;;0.90;0.40;;;;;;;;;;5099262;28;20228;-20
2022/05/30 13:47:10;;;;;;;1.17;0.40;;;;;;;;;;5099527;28;20262;-19
2022/05/30 13:49:40;;;;;;;0.50;0.30;;;;;;;;;;5101524;28;20225;-19
2022/05/30 13:52:10;;;;;;;0.80;0.30;;;;;;;;;;5104038;28;20650;-20
2022/05/30 13:54:39;;;;;;;0.68;0.40;;;;;;;;;;5104204;28;20305;-19
2022/05/30 13:57:06;;;;;;;1.63;0.45;;;;;;;;;;5102861;28;20235;-20
2022/05/30 13:59:40;;;;;;;1.30;0.40;;;;;;;;;;5102588;28;20691;-19
2022/05/30 14:02:28;;;;;;;1.48;0.43;;;;;;;;;;5100130;28;20233;-18
2022/05/30 14:04:56;;;;;;;1.65;0.40;;;;;;;;;;5103673;28;20224;-21
2022/05/30 14:07:26;;;;;;;2.10;0.45;;;;;;;;;;5102004;28;20233;-21
2022/05/30 14:09:54;;;;;;;1.48;0.30;;;;;;;;;;5100404;27;20237;-20
2022/05/30 14:12:22;;;;;;;1.55;0.40;;;;;;;;;;5099754;28;21022;-17
2022/05/30 14:15:05;;;;;;;1.20;0.40;;;;;;;;;;5102705;28;20240;-18
2022/05/30 14:17:33;;;;;;;1.25;0.30;;;;;;;;;;5092724;28;20264;-20
2022/05/30 14:20:04;;;;;;;2.60;0.40;;;;;;;;;;5102303;28;20281;-20
2022/05/30 14:22:33;;;;;;;0.98;0.40;;;;;;;;;;5103802;28;21048;-18
2022/05/30 14:25:03;;;;;;;1.80;0.57;;;;;;;;;;5103038;28;20750;-20
2022/05/30 14:27:31;;;;;;;0.98;0.47;;;;;;;;;;5102104;28;21090;-20
2022/05/30 14:29:58;;;;;;;1.02;0.40;;;;;;;;;;5100905;28;20232;-19
2022/05/30 14:32:30;;;;;;;1.15;0.43;;;;;;;;;;5098281;28;20263;-18
2022/05/30 14:35:02;;;;;;;1.02;0.50;;;;;;;;;;5098495;28;20225;-18
2022/05/30 14:37:30;;;;;;;1.20;0.40;;;;;;;;;;5101360;28;20244;-18
2022/05/30 14:40:02;;;;;;;2.72;0.50;;;;;;;;;;5104189;28;20236;-18
2022/05/30 14:42:33;;;;;;;1.45;0.60;;;;;;;;;;5101948;28;20228;-20
2022/05/30 14:45:04;;;;;;;1.02;0.30;;;;;;;;;;5100715;28;20235;-17
2022/05/30 14:47:32;;;;;;;0.60;0.30;;;;;;;;;;5100895;28;20224;-18
2022/05/30 14:50:01;;;;;;;1.40;0.40;;;;;;;;;;5100742;28;20320;-20
2022/05/30 14:52:30;;;;;;;0.50;0.35;;;;;;;;;;5097384;28;20220;-20
2022/05/30 14:54:59;;;;;;;0.77;0.38;;;;;;;;;;5103126;28;20232;-19
2022/05/30 14:57:29;;;;;;;1.23;0.40;;;;;;;;;;5101671;27;20240;-20
2022/05/30 14:59:56;;;;;;;1.08;0.40;;;;;;;;;;5101421;28;20228;-20
2022/05/30 15:05:10;;;;;;;1.33;0.40;;;;;;;;;;5102173;28;20231;-19
2022/05/30 15:07:38;;;;;;;0.57;0.38;;;;;;;;;;5101621;28;20224;-19
2022/05/30 15:10:06;;;;;;;1.63;0.52;;;;;;;;;;5094709;28;20610;-19
2022/05/30 15:12:34;;;;;;;1.88;0.30;;;;;;;;;;5102300;28;20244;-20
2022/05/30 15:15:02;;;;;;;0.88;0.40;;;;;;;;;;5099755;28;20724;-19
2022/05/30 15:17:29;;;;;;;0.75;0.32;;;;;;;;;;5101934;28;20359;-19
2022/05/30 15:19:57;;;;;;;1.67;0.30;;;;;;;;;;5098379;28;20248;-20
2022/05/30 15:22:24;;;;;;;2.35;0.40;;;;;;;;;;5100320;28;20247;-19
2022/05/30 15:24:54;;;;;;;1.45;0.45;;;;;;;;;;5098481;28;20342;-19
2022/05/30 15:27:21;;;;;;;0.73;0.40;;;;;;;;;;5100336;28;20295;-20